Time;durP1;ratioP1;P1;durP2;ratioP2;P2;SDS_P1;SDS_P2;PMS_P1;PMS_P2;Temp;Humidity;BMP_temperature;BMP_pressure;BME280_temperature;BME280_humidity;BME280_pressure;Samples;Min_cycle;Max_cycle;Signal;HPM_P1;HPM_P2
2023/12/12 00:01:22;;;;;;;9.40;2.72;;;7.30;99.90;;;;;;5034671;28;20045;-73
2023/12/12 00:03:48;;;;;;;9.85;2.83;;;7.30;99.90;;;;;;5036028;28;20080;-74
2023/12/12 00:06:14;;;;;;;9.95;2.60;;;7.30;99.90;;;;;;5035268;28;20542;-74
2023/12/12 00:08:39;;;;;;;8.05;2.15;;;7.30;99.90;;;;;;5018394;28;20094;-74
2023/12/12 00:11:06;;;;;;;8.00;2.08;;;7.20;99.90;;;;;;5035544;28;20045;-74
2023/12/12 00:13:31;;;;;;;8.48;2.30;;;7.30;99.90;;;;;;5034770;28;20458;-74
2023/12/12 00:15:57;;;;;;;8.35;2.50;;;7.20;99.90;;;;;;5035663;28;20147;-73
2023/12/12 00:18:23;;;;;;;9.15;2.15;;;7.20;99.90;;;;;;5017841;28;20052;-73
2023/12/12 00:20:48;;;;;;;9.43;2.00;;;7.20;99.90;;;;;;5034718;28;20049;-72
2023/12/12 00:23:14;;;;;;;6.57;2.20;;;7.20;99.90;;;;;;5017721;28;20502;-74
2023/12/12 00:25:40;;;;;;;7.47;1.67;;;7.20;99.90;;;;;;5001542;28;20053;-73
2023/12/12 00:28:06;;;;;;;7.13;2.13;;;7.20;99.90;;;;;;5034963;28;20145;-73
2023/12/12 00:30:31;;;;;;;6.53;1.88;;;7.20;99.90;;;;;;5035497;28;20049;-73
2023/12/12 00:32:57;;;;;;;8.20;2.20;;;7.20;99.90;;;;;;5035008;28;20046;-73
2023/12/12 00:35:23;;;;;;;13.32;2.17;;;7.20;99.90;;;;;;5033946;28;20048;-73
2023/12/12 00:37:48;;;;;;;9.65;2.13;;;7.10;99.90;;;;;;5017565;28;20132;-73
2023/12/12 00:40:14;;;;;;;9.07;2.33;;;7.10;99.90;;;;;;5034853;28;20045;-74
2023/12/12 00:42:40;;;;;;;5.68;1.80;;;7.00;99.90;;;;;;5033882;28;20382;-74
2023/12/12 00:45:06;;;;;;;9.73;2.47;;;7.00;99.90;;;;;;5034731;28;20081;-72
2023/12/12 00:47:32;;;;;;;8.68;2.95;;;7.00;99.90;;;;;;5035172;28;20048;-73
2023/12/12 00:49:58;;;;;;;5.85;2.55;;;7.00;99.90;;;;;;5035370;28;20061;-73
2023/12/12 00:52:25;;;;;;;10.55;3.10;;;6.90;99.90;;;;;;5034016;28;20577;-73
2023/12/12 00:54:51;;;;;;;9.15;3.22;;;6.90;99.90;;;;;;5034215;28;20045;-73
2023/12/12 00:57:17;;;;;;;9.00;3.25;;;6.80;99.90;;;;;;5033535;28;20049;-73
2023/12/12 00:59:42;;;;;;;8.90;3.47;;;6.80;99.90;;;;;;5034059;28;20315;-73
2023/12/12 01:02:08;;;;;;;10.32;3.50;;;6.80;99.90;;;;;;5034605;28;20048;-72
2023/12/12 01:04:34;;;;;;;13.93;3.47;;;6.70;99.90;;;;;;5033765;28;20045;-73
2023/12/12 01:07:00;;;;;;;9.88;3.22;;;6.70;99.90;;;;;;5034898;28;20089;-74
2023/12/12 01:09:26;;;;;;;8.75;3.38;;;6.60;99.90;;;;;;5033922;28;20184;-73
2023/12/12 01:11:52;;;;;;;11.73;3.50;;;6.60;99.90;;;;;;5033092;28;20061;-74
2023/12/12 01:14:17;;;;;;;7.47;3.40;;;6.60;99.90;;;;;;5033785;28;20107;-73
2023/12/12 01:16:43;;;;;;;9.07;3.25;;;6.60;99.90;;;;;;5033276;28;20049;-74
2023/12/12 01:19:09;;;;;;;10.35;3.47;;;6.50;99.90;;;;;;5032716;28;20049;-71
2023/12/12 01:21:35;;;;;;;10.40;3.72;;;6.50;99.90;;;;;;5034514;28;20136;-73
2023/12/12 01:24:01;;;;;;;7.53;3.45;;;6.50;99.90;;;;;;5034258;28;20049;-73
2023/12/12 01:26:26;;;;;;;10.73;3.08;;;6.40;99.90;;;;;;5032630;28;20372;-73
2023/12/12 01:28:52;;;;;;;7.95;2.80;;;6.40;99.90;;;;;;5033040;28;20451;-73
2023/12/12 01:31:18;;;;;;;7.60;2.30;;;6.30;99.90;;;;;;5033494;28;20068;-73
2023/12/12 01:33:45;;;;;;;8.77;2.97;;;6.30;99.90;;;;;;5033666;28;20045;-73
2023/12/12 01:36:11;;;;;;;9.05;2.20;;;6.30;99.90;;;;;;5033593;28;20095;-72
2023/12/12 01:38:37;;;;;;;9.57;2.40;;;6.30;99.90;;;;;;5032881;28;20483;-74
2023/12/12 01:41:03;;;;;;;7.82;2.53;;;6.30;99.90;;;;;;5032576;28;20052;-73
2023/12/12 01:43:31;;;;;;;8.20;2.55;;;6.20;99.90;;;;;;5033447;28;20490;-73
2023/12/12 01:46:00;;;;;;;7.32;2.35;;;6.20;99.90;;;;;;5033066;28;20574;-73
2023/12/12 01:48:27;;;;;;;9.38;2.78;;;6.10;99.90;;;;;;5033070;28;20462;-73
2023/12/12 01:50:53;;;;;;;11.68;2.55;;;6.00;99.90;;;;;;5033928;28;20128;-73
2023/12/12 01:53:23;;;;;;;9.63;2.65;;;5.90;99.90;;;;;;5033168;28;20145;-73
2023/12/12 01:55:50;;;;;;;7.38;2.30;;;6.00;99.90;;;;;;5032404;28;20049;-74
2023/12/12 01:58:16;;;;;;;7.38;2.65;;;5.90;99.90;;;;;;5032385;28;20124;-72
2023/12/12 02:00:42;;;;;;;5.75;2.95;;;5.90;99.90;;;;;;5033035;28;20470;-74
2023/12/12 02:03:08;;;;;;;8.65;2.83;;;5.90;99.90;;;;;;5034040;28;20052;-71
2023/12/12 02:05:39;;;;;;;12.68;2.95;;;5.80;99.90;;;;;;5033594;28;20483;-73
2023/12/12 02:08:05;;;;;;;7.53;3.03;;;5.80;99.90;;;;;;5034296;28;20356;-73
2023/12/12 02:10:31;;;;;;;7.75;2.72;;;5.80;99.90;;;;;;5032105;28;20041;-72
2023/12/12 02:12:57;;;;;;;11.07;3.05;;;5.80;99.90;;;;;;5032695;28;20187;-73
2023/12/12 02:15:23;;;;;;;8.07;2.80;;;5.70;99.90;;;;;;5032992;28;20180;-72
2023/12/12 02:17:49;;;;;;;10.52;3.70;;;5.70;99.90;;;;;;5032492;28;20056;-73
2023/12/12 02:20:15;;;;;;;8.70;2.78;;;5.60;99.90;;;;;;5033688;28;20049;-71
2023/12/12 02:22:42;;;;;;;8.43;2.80;;;5.70;99.90;;;;;;5033420;28;20041;-72
2023/12/12 02:25:08;;;;;;;10.38;3.30;;;5.60;99.90;;;;;;5033535;28;20057;-73
2023/12/12 02:27:36;;;;;;;8.45;3.13;;;5.60;99.90;;;;;;5032853;28;20045;-73
2023/12/12 02:30:01;;;;;;;9.15;2.90;;;5.60;99.90;;;;;;5033389;28;20045;-73
2023/12/12 02:32:30;;;;;;;9.25;3.20;;;5.50;99.90;;;;;;5032616;28;20045;-73
2023/12/12 02:34:56;;;;;;;10.13;3.00;;;5.50;99.90;;;;;;5032437;28;20100;-73
2023/12/12 02:37:22;;;;;;;8.75;3.33;;;5.50;99.90;;;;;;5033525;28;20099;-73
2023/12/12 02:39:47;;;;;;;9.85;2.97;;;5.50;99.90;;;;;;5033157;28;20124;-73
2023/12/12 02:42:13;;;;;;;6.32;2.75;;;5.40;99.90;;;;;;5016389;28;20049;-73
2023/12/12 02:44:39;;;;;;;8.48;3.08;;;5.50;99.90;;;;;;5031369;28;20041;-73
2023/12/12 02:47:04;;;;;;;11.00;3.35;;;5.40;99.90;;;;;;5032102;28;20086;-74
2023/12/12 02:49:30;;;;;;;11.73;3.70;;;5.50;99.90;;;;;;5014895;28;20053;-73
2023/12/12 02:51:56;;;;;;;9.00;3.05;;;5.30;99.90;;;;;;5033429;28;20056;-74
2023/12/12 02:54:21;;;;;;;8.10;3.17;;;5.30;99.90;;;;;;5033725;28;20132;-71
2023/12/12 02:56:47;;;;;;;6.47;3.00;;;5.50;99.90;;;;;;5034211;28;20056;-74
2023/12/12 02:59:13;;;;;;;6.95;2.78;;;5.40;99.90;;;;;;5036244;28;20136;-73
2023/12/12 03:01:38;;;;;;;8.55;3.30;;;5.30;99.90;;;;;;5019638;28;20096;-73
2023/12/12 03:04:04;;;;;;;9.25;3.30;;;5.30;99.90;;;;;;5019329;28;20145;-73
2023/12/12 03:06:30;;;;;;;8.27;2.72;;;5.30;99.90;;;;;;5037071;28;20068;-74
2023/12/12 03:08:55;;;;;;;11.02;3.20;;;5.30;99.90;;;;;;5037024;28;20107;-74
2023/12/12 03:11:21;;;;;;;9.32;3.22;;;5.30;99.90;;;;;;5036774;28;20104;-73
2023/12/12 03:13:47;;;;;;;8.55;2.75;;;5.50;99.90;;;;;;5036382;28;20104;-74
2023/12/12 03:16:13;;;;;;;8.68;3.13;;;5.40;99.90;;;;;;5035746;28;20049;-73
2023/12/12 03:18:38;;;;;;;11.43;3.75;;;5.30;99.90;;;;;;5035285;28;20049;-73
2023/12/12 03:21:04;;;;;;;9.80;3.53;;;5.30;99.90;;;;;;5019690;28;20041;-73
2023/12/12 03:23:30;;;;;;;9.95;2.85;;;5.40;99.90;;;;;;5035518;28;20137;-73
2023/12/12 03:25:56;;;;;;;11.57;3.22;;;5.40;99.90;;;;;;5036828;28;20045;-73
2023/12/12 03:28:22;;;;;;;7.85;3.50;;;5.40;99.90;;;;;;5035113;28;20068;-72
2023/12/12 03:30:48;;;;;;;8.68;3.85;;;5.40;99.90;;;;;;5036305;28;20045;-74
2023/12/12 03:33:14;;;;;;;10.13;3.65;;;5.40;99.90;;;;;;5036877;28;20463;-73
2023/12/12 03:35:39;;;;;;;9.07;3.50;;;5.50;99.90;;;;;;5035938;28;20136;-72
2023/12/12 03:38:05;;;;;;;10.20;3.30;;;5.40;99.90;;;;;;5035298;28;20052;-73
2023/12/12 03:40:31;;;;;;;7.22;3.40;;;5.40;99.90;;;;;;5035917;28;20069;-72
2023/12/12 03:42:56;;;;;;;9.10;3.53;;;5.50;99.90;;;;;;5035991;28;20044;-72
2023/12/12 03:45:22;;;;;;;8.95;3.58;;;5.50;99.90;;;;;;5036205;28;20053;-73
2023/12/12 03:47:48;;;;;;;9.23;3.45;;;5.50;99.90;;;;;;5034845;28;20044;-73
2023/12/12 03:50:13;;;;;;;7.07;3.08;;;5.40;99.90;;;;;;5034844;28;20502;-74
2023/12/12 03:52:39;;;;;;;10.20;3.45;;;5.40;99.90;;;;;;5035277;28;20037;-73
2023/12/12 03:55:08;;;;;;;8.13;3.28;;;5.40;99.90;;;;;;5034997;28;20098;-72
2023/12/12 03:57:34;;;;;;;8.35;2.90;;;5.50;99.90;;;;;;5035520;28;20517;-72
2023/12/12 04:00:00;;;;;;;11.55;3.55;;;5.50;99.90;;;;;;5035026;28;20049;-74
2023/12/12 04:02:26;;;;;;;6.82;2.88;;;5.30;99.90;;;;;;5035756;28;20041;-72
2023/12/12 04:04:51;;;;;;;9.20;2.70;;;5.40;99.90;;;;;;5035396;28;20144;-74
2023/12/12 04:07:18;;;;;;;9.98;2.80;;;5.30;99.90;;;;;;5035491;28;20183;-72
2023/12/12 04:09:44;;;;;;;6.47;2.55;;;5.40;99.90;;;;;;5035255;28;20077;-72
2023/12/12 04:12:10;;;;;;;12.90;3.35;;;5.40;99.90;;;;;;5034438;28;20046;-73
2023/12/12 04:14:35;;;;;;;10.45;2.83;;;5.30;99.90;;;;;;5034124;28;20380;-72
2023/12/12 04:17:03;;;;;;;6.63;3.10;;;5.40;99.90;;;;;;5034780;28;20048;-73
2023/12/12 04:19:29;;;;;;;14.27;3.03;;;5.30;99.90;;;;;;5035990;28;20051;-73
2023/12/12 04:21:54;;;;;;;9.88;2.90;;;5.30;99.90;;;;;;5034298;28;20136;-73
2023/12/12 04:24:20;;;;;;;7.93;2.92;;;5.30;99.90;;;;;;5018443;28;20128;-73
2023/12/12 04:26:46;;;;;;;9.10;3.03;;;5.30;99.90;;;;;;5035333;28;20099;-72
2023/12/12 04:29:12;;;;;;;7.85;2.47;;;5.30;99.90;;;;;;5017646;28;20049;-73
2023/12/12 04:31:37;;;;;;;9.88;3.15;;;5.30;99.90;;;;;;5034379;28;20056;-72
2023/12/12 04:34:03;;;;;;;9.05;3.00;;;5.30;99.90;;;;;;5017640;28;20053;-73
2023/12/12 04:36:29;;;;;;;8.20;3.13;;;5.30;99.90;;;;;;5034259;28;20060;-73
2023/12/12 04:38:54;;;;;;;8.35;2.83;;;5.40;99.90;;;;;;5017257;28;20475;-73
2023/12/12 04:41:20;;;;;;;7.72;2.80;;;5.30;99.90;;;;;;5033810;28;20049;-74
2023/12/12 04:43:46;;;;;;;11.55;2.90;;;5.40;99.90;;;;;;5034445;28;20067;-74
2023/12/12 04:46:19;;;;;;;6.30;2.80;;;5.30;99.90;;;;;;5035129;28;20164;-74
2023/12/12 04:48:45;;;;;;;6.28;3.17;;;5.30;99.90;;;;;;5034394;28;20153;-72
2023/12/12 04:51:11;;;;;;;6.57;2.83;;;5.30;99.90;;;;;;5034678;28;20112;-72
2023/12/12 04:53:36;;;;;;;8.38;2.70;;;5.30;99.90;;;;;;5034506;28;20108;-71
2023/12/12 04:56:02;;;;;;;9.68;3.30;;;5.30;99.90;;;;;;5033532;28;20049;-73
2023/12/12 04:58:28;;;;;;;6.90;3.05;;;5.30;99.90;;;;;;5034286;28;20046;-73
2023/12/12 05:00:53;;;;;;;9.13;3.13;;;5.30;99.90;;;;;;5034029;28;20080;-73
2023/12/12 05:03:19;;;;;;;9.38;3.38;;;5.40;99.90;;;;;;5017496;28;20133;-73
2023/12/12 05:05:47;;;;;;;8.65;3.38;;;5.30;99.90;;;;;;5033073;28;20050;-72
2023/12/12 05:08:13;;;;;;;9.90;2.90;;;5.20;99.90;;;;;;5034749;28;20115;-73
2023/12/12 05:10:38;;;;;;;9.98;3.97;;;5.30;99.90;;;;;;5034296;28;20045;-71
2023/12/12 05:13:04;;;;;;;9.45;3.13;;;5.30;99.90;;;;;;5033526;28;20052;-73
2023/12/12 05:15:30;;;;;;;6.68;2.92;;;5.30;99.90;;;;;;5034364;28;20049;-73
2023/12/12 05:17:56;;;;;;;7.43;3.90;;;5.20;99.90;;;;;;5034343;28;20046;-72
2023/12/12 05:20:21;;;;;;;11.88;3.90;;;5.30;99.90;;;;;;5032735;28;20045;-73
2023/12/12 05:22:47;;;;;;;8.60;3.25;;;5.20;99.90;;;;;;5032639;28;20044;-73
2023/12/12 05:25:13;;;;;;;9.63;3.35;;;5.30;99.90;;;;;;5034295;28;20072;-72
2023/12/12 05:27:38;;;;;;;10.93;3.70;;;5.30;99.90;;;;;;5032972;28;20077;-73
2023/12/12 05:30:05;;;;;;;8.80;3.67;;;5.30;99.90;;;;;;5033645;28;20357;-72
2023/12/12 05:32:30;;;;;;;8.38;3.65;;;5.20;99.90;;;;;;5032832;28;20403;-74
2023/12/12 05:34:56;;;;;;;9.82;4.07;;;5.30;99.90;;;;;;5032112;28;20057;-73
2023/12/12 05:37:22;;;;;;;12.57;4.15;;;5.20;99.90;;;;;;5016458;28;20099;-73
2023/12/12 05:39:48;;;;;;;11.70;3.63;;;5.20;99.90;;;;;;5033296;28;20445;-73
2023/12/12 05:42:13;;;;;;;10.55;3.88;;;5.20;99.90;;;;;;5032407;28;20376;-72
2023/12/12 05:44:39;;;;;;;11.38;3.97;;;5.30;99.90;;;;;;5033962;28;20123;-73
2023/12/12 05:47:05;;;;;;;11.77;4.53;;;5.10;99.90;;;;;;5032938;28;20049;-72
2023/12/12 05:49:30;;;;;;;12.18;4.00;;;5.10;99.90;;;;;;5032128;28;20136;-73
2023/12/12 05:51:56;;;;;;;12.88;4.20;;;5.10;99.90;;;;;;5033018;28;20053;-73
2023/12/12 05:54:22;;;;;;;11.35;4.22;;;5.10;99.90;;;;;;5033109;28;20045;-74
2023/12/12 05:56:48;;;;;;;10.18;3.90;;;5.10;99.90;;;;;;5032595;28;20088;-73
2023/12/12 05:59:14;;;;;;;6.50;4.13;;;5.20;99.90;;;;;;5033532;28;20132;-73
2023/12/12 06:01:41;;;;;;;12.68;4.38;;;5.00;99.90;;;;;;5032327;28;20516;-73
2023/12/12 06:04:11;;;;;;;11.30;4.40;;;5.00;99.90;;;;;;5033154;28;20045;-72
2023/12/12 06:06:41;;;;;;;12.30;4.60;;;5.00;99.90;;;;;;5032404;28;20053;-73
2023/12/12 06:09:07;;;;;;;12.27;4.80;;;5.00;99.90;;;;;;5033076;28;20060;-73
2023/12/12 06:11:32;;;;;;;14.07;5.65;;;5.00;99.90;;;;;;5033036;28;20053;-73
2023/12/12 06:13:58;;;;;;;11.80;5.50;;;5.00;99.90;;;;;;5031452;28;20037;-72
2023/12/12 06:16:24;;;;;;;11.32;5.47;;;5.00;99.90;;;;;;5032908;28;20501;-72
2023/12/12 06:18:51;;;;;;;16.23;6.00;;;5.00;99.90;;;;;;5032772;28;20050;-71
2023/12/12 06:21:17;;;;;;;12.30;5.22;;;5.00;99.90;;;;;;5033247;28;20120;-72
2023/12/12 06:23:43;;;;;;;14.07;5.40;;;6.00;99.90;;;;;;5031768;28;20137;-72
2023/12/12 06:26:08;;;;;;;10.65;5.90;;;5.10;99.90;;;;;;5032252;28;20053;-73
2023/12/12 06:28:35;;;;;;;10.52;5.78;;;5.00;99.90;;;;;;5031782;28;20045;-72
2023/12/12 06:31:01;;;;;;;15.52;6.47;;;5.00;99.90;;;;;;5031938;28;20362;-72
2023/12/12 06:33:28;;;;;;;14.75;6.63;;;5.00;99.90;;;;;;5032863;28;20033;-72
2023/12/12 06:35:56;;;;;;;11.50;6.38;;;5.00;99.90;;;;;;4999088;28;20045;-72
2023/12/12 06:38:22;;;;;;;17.67;6.88;;;5.00;99.90;;;;;;5032083;28;20056;-72
2023/12/12 06:40:48;;;;;;;14.80;6.55;;;5.00;99.90;;;;;;5033104;28;20450;-72
2023/12/12 06:43:14;;;;;;;14.60;7.38;;;5.00;99.90;;;;;;5031812;28;20107;-72
2023/12/12 06:45:40;;;;;;;21.50;8.75;;;4.90;99.90;;;;;;5031637;28;20053;-72
2023/12/12 06:48:05;;;;;;;16.13;8.63;;;5.00;99.90;;;;;;5030779;28;20307;-73
2023/12/12 06:50:31;;;;;;;16.63;8.23;;;4.90;99.90;;;;;;5030973;28;20095;-72
2023/12/12 06:52:57;;;;;;;18.88;7.75;;;4.90;99.90;;;;;;5032349;28;20128;-71
2023/12/12 06:55:23;;;;;;;16.70;8.18;;;4.90;99.90;;;;;;5014548;28;20462;-72
2023/12/12 06:57:49;;;;;;;18.00;8.35;;;4.90;99.90;;;;;;5031689;28;20081;-72
2023/12/12 07:00:15;;;;;;;19.17;8.57;;;4.90;99.90;;;;;;5032765;28;20045;-72
2023/12/12 07:02:41;;;;;;;14.98;8.43;;;4.90;99.90;;;;;;5032983;28;20504;-72
2023/12/12 07:05:07;;;;;;;22.23;9.32;;;4.90;99.90;;;;;;5015351;28;20081;-73
2023/12/12 07:07:32;;;;;;;17.65;9.13;;;4.90;99.90;;;;;;5015238;28;20057;-72
2023/12/12 07:09:59;;;;;;;20.02;8.65;;;4.90;99.90;;;;;;5014857;28;20058;-71
2023/12/12 07:12:24;;;;;;;20.48;8.90;;;4.90;99.90;;;;;;5032773;28;20132;-71
2023/12/12 07:14:51;;;;;;;19.15;9.98;;;4.90;99.90;;;;;;5032875;28;20146;-71
2023/12/12 07:17:16;;;;;;;24.02;9.77;;;5.00;99.90;;;;;;5032272;28;20186;-72
2023/12/12 07:19:43;;;;;;;19.92;9.20;;;5.00;99.90;;;;;;5031514;28;20088;-71
2023/12/12 07:22:09;;;;;;;20.58;9.05;;;5.00;99.90;;;;;;5030808;28;20111;-74
2023/12/12 07:24:35;;;;;;;18.70;10.13;;;5.10;99.90;;;;;;5032692;28;20085;-73
2023/12/12 07:27:01;;;;;;;21.52;9.68;;;5.10;99.90;;;;;;5032084;28;20053;-72
2023/12/12 07:29:27;;;;;;;26.35;10.10;;;5.10;99.90;;;;;;5032477;28;20048;-72
2023/12/12 07:31:52;;;;;;;22.25;10.27;;;5.10;99.90;;;;;;5032768;28;20068;-72
2023/12/12 07:34:18;;;;;;;20.30;9.43;;;5.20;99.90;;;;;;5030689;28;20395;-73
2023/12/12 07:36:45;;;;;;;21.58;10.27;;;5.20;99.90;;;;;;5031535;28;20049;-73
2023/12/12 07:39:11;;;;;;;22.70;11.07;;;5.20;99.90;;;;;;5030856;28;20049;-73
2023/12/12 07:41:36;;;;;;;22.98;11.65;;;5.20;99.90;;;;;;5032644;28;20103;-73
2023/12/12 07:44:03;;;;;;;20.55;10.70;;;5.20;99.90;;;;;;5034376;28;20048;-72
2023/12/12 07:46:29;;;;;;;25.48;11.63;;;5.20;99.90;;;;;;5035854;28;20041;-73
2023/12/12 07:48:54;;;;;;;25.00;12.45;;;5.20;99.90;;;;;;5035962;28;20042;-73
2023/12/12 07:51:21;;;;;;;32.38;14.00;;;5.30;99.90;;;;;;5035699;28;20060;-73
2023/12/12 07:53:47;;;;;;;82.82;15.23;;;5.30;99.90;;;;;;5036051;28;20052;-73
2023/12/12 07:56:12;;;;;;;95.38;16.27;;;5.30;99.90;;;;;;5034706;28;20402;-73
2023/12/12 07:58:38;;;;;;;52.92;15.48;;;5.30;99.90;;;;;;5035734;28;20136;-74
2023/12/12 08:01:04;;;;;;;74.68;15.52;;;5.30;99.90;;;;;;5035971;28;20045;-73
2023/12/12 08:03:30;;;;;;;140.63;18.20;;;5.30;99.90;;;;;;5035028;28;20053;-73
2023/12/12 08:05:56;;;;;;;97.22;17.15;;;5.30;99.90;;;;;;5035269;28;20084;-73
2023/12/12 08:08:21;;;;;;;100.25;18.33;;;5.40;99.90;;;;;;5033678;28;20077;-72
2023/12/12 08:10:47;;;;;;;115.13;18.65;;;5.40;99.90;;;;;;5033882;28;20057;-72
2023/12/12 08:13:13;;;;;;;89.15;14.95;;;5.40;99.90;;;;;;5034812;28;20091;-72
2023/12/12 08:15:39;;;;;;;77.72;16.77;;;5.50;99.90;;;;;;5034125;28;20055;-73
2023/12/12 08:18:04;;;;;;;56.17;15.77;;;5.50;99.90;;;;;;5017311;28;20390;-73
2023/12/12 08:20:30;;;;;;;63.83;16.77;;;5.50;99.90;;;;;;5035250;28;20060;-75
2023/12/12 08:22:57;;;;;;;40.35;16.02;;;5.50;99.90;;;;;;5034319;28;20367;-74
2023/12/12 08:25:23;;;;;;;63.42;18.48;;;5.50;99.90;;;;;;5034005;28;20371;-75
2023/12/12 08:27:48;;;;;;;49.28;17.40;;;5.50;99.90;;;;;;5034161;28;20132;-75
2023/12/12 08:30:14;;;;;;;56.17;16.88;;;5.50;99.90;;;;;;5033843;28;20057;-75
2023/12/12 08:32:40;;;;;;;49.63;16.35;;;5.50;99.90;;;;;;5035001;28;20053;-75
2023/12/12 08:35:07;;;;;;;34.83;16.30;;;5.60;99.90;;;;;;5035189;28;20038;-72
2023/12/12 08:37:32;;;;;;;53.92;17.30;;;5.60;99.90;;;;;;5033937;28;20081;-75
2023/12/12 08:39:58;;;;;;;46.65;17.08;;;5.60;99.90;;;;;;5034203;28;20104;-76
2023/12/12 08:42:24;;;;;;;49.97;15.77;;;5.60;99.90;;;;;;5035272;28;20037;-75
2023/12/12 08:44:49;;;;;;;45.63;16.58;;;5.60;99.90;;;;;;5034758;28;20100;-75
2023/12/12 08:47:15;;;;;;;40.20;15.75;;;5.60;99.90;;;;;;5034264;28;20099;-74
2023/12/12 08:49:41;;;;;;;39.90;15.60;;;5.60;99.90;;;;;;5033571;28;20406;-73
2023/12/12 08:52:07;;;;;;;38.97;16.67;;;5.60;99.90;;;;;;5034414;28;20057;-71
2023/12/12 08:54:36;;;;;;;28.27;16.73;;;5.60;99.90;;;;;;5032438;28;20049;-75
2023/12/12 08:57:04;;;;;;;42.53;17.33;;;5.60;99.90;;;;;;5034886;28;20054;-74
2023/12/12 08:59:30;;;;;;;50.50;18.70;;;5.70;99.90;;;;;;5033376;28;20095;-74
2023/12/12 09:01:56;;;;;;;68.88;21.20;;;5.70;99.90;;;;;;5034667;28;20045;-73
2023/12/12 09:04:22;;;;;;;77.15;22.10;;;5.70;99.90;;;;;;5033886;28;20053;-75
2023/12/12 09:06:48;;;;;;;59.28;19.35;;;5.70;99.90;;;;;;5034355;28;20042;-74
2023/12/12 09:09:14;;;;;;;61.75;17.65;;;5.70;99.90;;;;;;5033720;28;20187;-76
2023/12/12 09:11:41;;;;;;;104.95;18.77;;;5.80;99.90;;;;;;5033915;28;20471;-74
2023/12/12 09:14:07;;;;;;;83.95;17.48;;;5.80;99.90;;;;;;5034172;28;20037;-75
2023/12/12 09:16:33;;;;;;;63.72;16.65;;;5.70;99.90;;;;;;5032680;28;20521;-74
2023/12/12 09:18:58;;;;;;;93.50;18.38;;;5.70;99.90;;;;;;5034091;28;20124;-73
2023/12/12 09:21:24;;;;;;;146.10;21.27;;;5.70;99.90;;;;;;5032988;28;20475;-74
2023/12/12 09:23:50;;;;;;;175.50;21.38;;;5.70;99.90;;;;;;5016801;28;20103;-74
2023/12/12 09:26:18;;;;;;;137.13;16.83;;;5.70;99.90;;;;;;5032863;28;20045;-73
2023/12/12 09:28:44;;;;;;;112.78;18.40;;;5.70;99.90;;;;;;5033939;28;20060;-73
2023/12/12 09:31:11;;;;;;;185.85;17.77;;;5.70;99.90;;;;;;5033858;28;20053;-73
2023/12/12 09:33:37;;;;;;;157.27;17.23;;;5.70;99.90;;;;;;4999783;28;20551;-73
2023/12/12 09:36:06;;;;;;;223.85;21.48;;;5.70;99.90;;;;;;5034060;28;20051;-72
2023/12/12 09:38:31;;;;;;;194.52;20.63;;;5.70;99.90;;;;;;5033589;28;20175;-71
2023/12/12 09:40:57;;;;;;;139.90;18.48;;;5.70;99.90;;;;;;5033213;28;20128;-73
2023/12/12 09:43:26;;;;;;;152.88;19.67;;;5.60;99.90;;;;;;5032237;28;20053;-73
2023/12/12 09:45:56;;;;;;;143.45;16.33;;;5.60;99.90;;;;;;5034127;28;20046;-74
2023/12/12 09:48:23;;;;;;;181.18;17.92;;;5.60;99.90;;;;;;5033466;28;20048;-73
2023/12/12 09:50:49;;;;;;;270.20;22.65;;;5.50;99.90;;;;;;5033192;28;20065;-72
2023/12/12 09:53:15;;;;;;;160.23;16.73;;;5.50;99.90;;;;;;5032393;28;20045;-71
2023/12/12 09:55:41;;;;;;;233.82;20.15;;;5.50;99.90;;;;;;5032426;28;20060;-73
2023/12/12 09:58:07;;;;;;;137.57;16.05;;;5.40;99.90;;;;;;5032438;28;20088;-71
2023/12/12 10:00:33;;;;;;;200.25;18.98;;;5.40;99.90;;;;;;5031635;28;20118;-71
2023/12/12 10:03:04;;;;;;;127.95;17.20;;;5.40;99.90;;;;;;5032623;28;20394;-70
2023/12/12 10:05:32;;;;;;;169.68;19.77;;;5.40;99.90;;;;;;5032004;28;20049;-70
2023/12/12 10:07:59;;;;;;;138.57;17.10;;;5.40;99.90;;;;;;5031767;28;20045;-72
2023/12/12 10:10:25;;;;;;;175.18;19.05;;;5.30;99.90;;;;;;5032478;28;20442;-70
2023/12/12 10:12:51;;;;;;;149.52;17.98;;;5.40;99.90;;;;;;5031628;28;20133;-73
2023/12/12 10:15:27;;;;;;;99.78;19.17;;;5.40;99.90;;;;;;5033380;28;20128;-72
2023/12/12 10:17:59;;;;;;;125.40;16.80;;;5.40;99.90;;;;;;5033154;28;20046;-73
2023/12/12 10:20:30;;;;;;;94.93;14.10;;;5.40;99.90;;;;;;5031093;28;20075;-72
2023/12/12 10:23:02;;;;;;;125.13;16.35;;;5.40;99.90;;;;;;5031750;28;20048;-71
2023/12/12 10:25:35;;;;;;;89.75;15.20;;;5.30;99.90;;;;;;5032325;28;20506;-70
2023/12/12 10:28:02;;;;;;;60.60;15.00;;;5.30;99.90;;;;;;5033309;28;20096;-71
2023/12/12 10:30:27;;;;;;;176.45;18.63;;;5.30;99.90;;;;;;5032576;28;20569;-70
2023/12/12 10:32:54;;;;;;;115.00;15.45;;;5.40;99.90;;;;;;5032613;28;20085;-71
2023/12/12 10:35:21;;;;;;;110.00;15.02;;;5.40;99.90;;;;;;5032618;28;20053;-71
2023/12/12 10:37:48;;;;;;;156.73;17.35;;;5.40;99.90;;;;;;5031729;28;20052;-74
2023/12/12 10:40:19;;;;;;;98.07;15.88;;;5.70;99.90;;;;;;5032942;28;20055;-73
2023/12/12 10:42:45;;;;;;;124.82;15.45;;;5.40;99.90;;;;;;5032555;28;20115;-73
2023/12/12 10:45:13;;;;;;;127.00;17.33;;;5.50;99.90;;;;;;5032858;28;20041;-73
2023/12/12 10:47:53;;;;;;;117.07;17.52;;;5.50;99.90;;;;;;5032406;28;20493;-73
2023/12/12 10:50:19;;;;;;;125.13;17.88;;;5.50;99.90;;;;;;5032636;28;20065;-72
2023/12/12 10:52:48;;;;;;;85.55;15.02;;;5.50;99.90;;;;;;5032319;28;20045;-73
2023/12/12 10:55:15;;;;;;;63.72;15.20;;;5.50;99.90;;;;;;5032660;28;20134;-74
2023/12/12 10:57:43;;;;;;;74.97;15.63;;;5.50;99.90;;;;;;5032317;28;20431;-73
2023/12/12 11:00:17;;;;;;;81.70;17.00;;;5.50;99.90;;;;;;5032867;28;20052;-73
2023/12/12 11:02:44;;;;;;;158.63;18.50;;;5.50;99.90;;;;;;5032383;28;20046;-73
2023/12/12 11:05:12;;;;;;;169.60;17.25;;;5.60;99.90;;;;;;5030745;28;20182;-73
2023/12/12 11:07:39;;;;;;;82.25;14.15;;;5.60;99.90;;;;;;5030933;28;20040;-73
2023/12/12 11:10:08;;;;;;;54.08;14.45;;;5.50;99.90;;;;;;5031996;28;20045;-74
2023/12/12 11:12:38;;;;;;;136.55;15.23;;;5.60;99.90;;;;;;5031411;28;20395;-73
2023/12/12 11:15:06;;;;;;;123.00;15.75;;;5.60;99.90;;;;;;5032660;28;20184;-73
2023/12/12 11:17:33;;;;;;;74.10;14.70;;;5.60;99.90;;;;;;5031383;28;20510;-72
2023/12/12 11:20:09;;;;;;;119.40;16.00;;;5.60;99.90;;;;;;5035303;28;20060;-72
2023/12/12 11:22:39;;;;;;;106.85;16.02;;;5.60;99.90;;;;;;5018539;28;20045;-74
2023/12/12 11:25:08;;;;;;;108.55;18.08;;;5.50;99.90;;;;;;5034806;28;20081;-73
2023/12/12 11:27:38;;;;;;;170.15;19.08;;;5.50;99.90;;;;;;5036191;28;20041;-72
2023/12/12 11:30:05;;;;;;;105.85;15.60;;;5.60;99.90;;;;;;5036449;28;20045;-73
2023/12/12 11:32:33;;;;;;;52.53;13.82;;;5.50;99.90;;;;;;5035738;28;20045;-73
2023/12/12 11:34:59;;;;;;;152.07;20.25;;;5.50;99.90;;;;;;5018285;28;20061;-73
2023/12/12 11:37:41;;;;;;;112.63;19.05;;;5.60;99.90;;;;;;5033946;28;20041;-73
2023/12/12 11:40:09;;;;;;;73.03;18.80;;;5.60;99.90;;;;;;5034854;28;20046;-72
2023/12/12 11:42:35;;;;;;;82.68;20.77;;;5.60;99.90;;;;;;5034528;28;20057;-72
2023/12/12 11:45:01;;;;;;;47.40;19.67;;;5.70;99.90;;;;;;5035835;28;20045;-73
2023/12/12 11:47:32;;;;;;;87.53;19.48;;;5.80;99.90;;;;;;5035199;28;20128;-74
2023/12/12 11:50:15;;;;;;;46.80;18.30;;;5.70;99.90;;;;;;5034648;28;20058;-72
2023/12/12 11:52:41;;;;;;;34.47;18.17;;;5.70;99.90;;;;;;5035502;28;20478;-73
2023/12/12 11:55:07;;;;;;;54.65;18.33;;;5.80;99.90;;;;;;5034264;28;20061;-73
2023/12/12 11:57:33;;;;;;;40.72;19.38;;;5.90;99.90;;;;;;5034334;28;20469;-73
2023/12/12 12:00:03;;;;;;;50.05;17.90;;;5.90;99.90;;;;;;5036100;28;20056;-74
2023/12/12 12:02:30;;;;;;;44.67;20.00;;;5.90;99.90;;;;;;5035699;28;20045;-75
2023/12/12 12:04:56;;;;;;;45.92;20.33;;;5.90;99.90;;;;;;5034383;28;20049;-72
2023/12/12 12:07:21;;;;;;;58.85;21.52;;;5.90;99.90;;;;;;5035239;28;20072;-74
2023/12/12 12:09:49;;;;;;;46.42;22.13;;;5.90;99.90;;;;;;5034079;28;20068;-72
2023/12/12 12:12:17;;;;;;;53.80;22.80;;;6.00;99.90;;;;;;5035660;28;20059;-73
2023/12/12 12:14:42;;;;;;;45.72;22.63;;;6.00;99.90;;;;;;5034033;28;20053;-72
2023/12/12 12:17:09;;;;;;;37.53;22.00;;;6.00;99.90;;;;;;5035095;28;20090;-74
2023/12/12 12:19:37;;;;;;;45.38;22.00;;;6.10;99.90;;;;;;5033928;28;20125;-71
2023/12/12 12:22:04;;;;;;;41.35;20.63;;;6.00;99.90;;;;;;5034015;28;20111;-72
2023/12/12 12:24:31;;;;;;;50.28;21.92;;;6.10;99.90;;;;;;5034303;28;20380;-72
2023/12/12 12:26:57;;;;;;;48.72;22.23;;;6.10;99.90;;;;;;5033747;28;20057;-73
2023/12/12 12:29:26;;;;;;;41.55;19.27;;;6.10;99.90;;;;;;5035469;28;20057;-76
2023/12/12 12:31:52;;;;;;;50.67;21.90;;;6.10;99.90;;;;;;5033769;28;20049;-72
2023/12/12 12:34:23;;;;;;;34.63;22.52;;;6.10;99.90;;;;;;5034908;28;20045;-73
2023/12/12 12:36:49;;;;;;;32.17;20.92;;;6.10;99.90;;;;;;5034428;28;20057;-72
2023/12/12 12:39:19;;;;;;;38.33;20.67;;;6.10;99.90;;;;;;5033749;28;20372;-73
2023/12/12 12:41:52;;;;;;;41.67;24.35;;;6.10;99.90;;;;;;5034282;28;20104;-73